nws-alerts: Checking more than four warning/county codes can delay the loading of your pages. You should use a cron job to get the data.
EllijayWeather Station Historical Data
Daily Summary for December 18, 2018 Units:  English    Metric   Both
Daily Weekly Monthly Yearly Custom
  High: Low: Average:
Temperature: 60.1 °F 32.9 °F 43.7 °F
Dew Point: 40.3 °F 14.5 °F 29.2 °F
Humidity: 74% 29% 58%
Wind Speed: 4mph 0mph 0.1mph
Wind Gust: 7mph - -
Wind- - WNW
Pressure: 30.23 in 30.09 in -
Precipitation: 0 in    
Historical Graphs
 
 
Tabular Data for December 18, 2018
Time Temperature Dew Point Pressure Wind Wind Speed Wind Gust Humidity Rainfall Rate (Hourly) solar
00:04 33.4 °F 16.3 °F 30.18 in Calm     49% 0 in meteobridge W/m2
00:09 33.4 °F 15.8 °F 30.18 in Calm     48% 0 in meteobridge W/m2
00:14 33.4 °F 15.8 °F 30.18 in Calm     48% 0 in meteobridge W/m2
00:19 33.4 °F 15.8 °F 30.18 in Calm     48% 0 in meteobridge W/m2
00:24 33.4 °F 15.8 °F 30.18 in Calm     48% 0 in meteobridge W/m2
00:29 33.3 °F 15.6 °F 30.18 in Calm     48% 0 in meteobridge W/m2
00:34 33.3 °F 15.6 °F 30.18 in Calm     48% 0 in meteobridge W/m2
00:39 33.1 °F 15.4 °F 30.18 in Calm     48% 0 in meteobridge W/m2
00:44 32.9 °F 15.4 °F 30.17 in Calm     48% 0 in meteobridge W/m2
00:49 32.9 °F 15.4 °F 30.17 in Calm     48% 0 in meteobridge W/m2
00:54 33.1 °F 15.1 °F 30.17 in Calm     47% 0 in meteobridge W/m2
00:59 33.1 °F 15.1 °F 30.16 in Calm     47% 0 in meteobridge W/m2
01:04 33.1 °F 15.1 °F 30.16 in Calm     47% 0 in meteobridge W/m2
01:09 33.1 °F 15.1 °F 30.16 in Calm     47% 0 in meteobridge W/m2
01:14 33.3 °F 14.7 °F 30.16 in Calm     46% 0 in meteobridge W/m2
01:19 33.4 °F 14.9 °F 30.16 in Calm     46% 0 in meteobridge W/m2
01:24 33.6 °F 14.5 °F 30.16 in Calm   1 mph 45% 0 in meteobridge W/m2
01:29 34 °F 14.9 °F 30.15 in Calm     45% 0 in meteobridge W/m2
01:34 34.5 °F 14.9 °F 30.15 in Calm   4 mph 44% 0 in meteobridge W/m2
01:39 35.4 °F 15.6 °F 30.14 in NNW 0.9 mph 2 mph 44% 0 in meteobridge W/m2
01:44 36.1 °F 16.3 °F 30.15 in Calm   3 mph 44% 0 in meteobridge W/m2
01:49 37 °F 19.2 °F 30.14 in Calm   4 mph 48% 0 in meteobridge W/m2
01:54 37.9 °F 23.2 °F 30.14 in Calm   5 mph 55% 0 in meteobridge W/m2
01:59 38.8 °F 27 °F 30.14 in Calm   2 mph 62% 0 in meteobridge W/m2
02:04 39.2 °F 29.1 °F 30.14 in Calm     67% 0 in meteobridge W/m2
02:09 39.6 °F 30.2 °F 30.15 in NW 2 mph 3 mph 69% 0 in meteobridge W/m2
02:14 39.6 °F 30.6 °F 30.16 in Calm     70% 0 in meteobridge W/m2
02:19 39.7 °F 31.1 °F 30.16 in West 0.9 mph 5 mph 71% 0 in meteobridge W/m2
02:24 40.5 °F 32.5 °F 30.16 in Calm   3 mph 73% 0 in meteobridge W/m2
02:29 41.4 °F 33.6 °F 30.16 in Calm   1 mph 74% 0 in meteobridge W/m2
02:34 41.5 °F 33.8 °F 30.16 in Calm     74% 0 in meteobridge W/m2
02:39 41.5 °F 33.8 °F 30.16 in Calm   1 mph 74% 0 in meteobridge W/m2
02:44 41.4 °F 33.6 °F 30.16 in Calm     74% 0 in meteobridge W/m2
02:49 41.2 °F 33.4 °F 30.16 in Calm   3 mph 74% 0 in meteobridge W/m2
02:54 40.8 °F 33.3 °F 30.16 in Calm     74% 0 in meteobridge W/m2
02:58 40.6 °F 32.7 °F 30.16 in Calm     73% 0 in meteobridge W/m2
03:04 40.3 °F 32.4 °F 30.16 in Calm     73% 0 in meteobridge W/m2
03:09 39.9 °F 32 °F 30.16 in Calm     73% 0 in meteobridge W/m2
03:14 39.6 °F 31.3 °F 30.16 in Calm     72% 0 in meteobridge W/m2
03:19 39 °F 30.4 °F 30.16 in Calm     71% 0 in meteobridge W/m2
03:24 38.7 °F 29.7 °F 30.16 in Calm     70% 0 in meteobridge W/m2
03:29 38.3 °F 29.7 °F 30.15 in Calm     71% 0 in meteobridge W/m2
03:34 38.1 °F 29.5 °F 30.15 in Calm     71% 0 in meteobridge W/m2
03:39 37.9 °F 29.1 °F 30.16 in Calm     70% 0 in meteobridge W/m2
03:44 37.8 °F 28.6 °F 30.16 in Calm     69% 0 in meteobridge W/m2
03:49 37.8 °F 28.6 °F 30.16 in Calm     69% 0 in meteobridge W/m2
03:54 37.6 °F 28 °F 30.16 in Calm     68% 0 in meteobridge W/m2
03:59 37.2 °F 27.3 °F 30.16 in Calm     67% 0 in meteobridge W/m2
04:04 37.2 °F 27.3 °F 30.16 in Calm     67% 0 in meteobridge W/m2
04:09 37 °F 27.1 °F 30.16 in Calm     67% 0 in meteobridge W/m2
04:14 37 °F 26.8 °F 30.16 in Calm     66% 0 in meteobridge W/m2
04:19 37 °F 26.8 °F 30.16 in Calm     66% 0 in meteobridge W/m2
04:24 37 °F 27.1 °F 30.16 in Calm     67% 0 in meteobridge W/m2
04:29 37.2 °F 27.3 °F 30.16 in Calm     67% 0 in meteobridge W/m2
04:34 37.6 °F 28 °F 30.16 in Calm   1 mph 68% 0 in meteobridge W/m2
04:39 37.6 °F 28 °F 30.16 in Calm   1 mph 68% 0 in meteobridge W/m2
04:44 37.4 °F 28.2 °F 30.16 in Calm     69% 0 in meteobridge W/m2
04:49 37.6 °F 28.4 °F 30.16 in WNW 4 mph 6 mph 69% 0 in meteobridge W/m2
04:54 38.1 °F 29.1 °F 30.16 in Calm     70% 0 in meteobridge W/m2
04:59 38.1 °F 29.5 °F 30.16 in Calm   1 mph 71% 0 in meteobridge W/m2
05:04 37.8 °F 28.9 °F 30.16 in Calm     70% 0 in meteobridge W/m2
05:09 37.6 °F 28.4 °F 30.16 in Calm   1 mph 69% 0 in meteobridge W/m2
05:14 37.9 °F 28.8 °F 30.16 in NW 2 mph 4 mph 69% 0 in meteobridge W/m2
05:19 38.1 °F 29.1 °F 30.16 in Calm     70% 0 in meteobridge W/m2
05:23 37.9 °F 29.1 °F 30.16 in Calm     70% 0 in meteobridge W/m2
05:29 37.2 °F 28.8 °F 30.17 in Calm     71% 0 in meteobridge W/m2
05:34 36.7 °F 27.5 °F 30.16 in Calm     69% 0 in meteobridge W/m2
05:39 36.3 °F 26.4 °F 30.16 in Calm     67% 0 in meteobridge W/m2
05:44 36 °F 25.7 °F 30.17 in Calm     66% 0 in meteobridge W/m2
05:49 36.5 °F 25.2 °F 30.17 in Calm   2 mph 63% 0 in meteobridge W/m2
05:54 37.6 °F 27 °F 30.17 in Calm     65% 0 in meteobridge W/m2
05:59 38.1 °F 28.9 °F 30.17 in Calm   3 mph 69% 0 in meteobridge W/m2
06:04 38.7 °F 29.7 °F 30.17 in Calm   2 mph 70% 0 in meteobridge W/m2
06:09 38.7 °F 30 °F 30.17 in Calm   1 mph 71% 0 in meteobridge W/m2
06:14 38.5 °F 29.8 °F 30.17 in Calm     71% 0 in meteobridge W/m2
06:19 38.5 °F 29.8 °F 30.17 in Calm   2 mph 71% 0 in meteobridge W/m2
06:24 38.1 °F 29.5 °F 30.17 in Calm     71% 0 in meteobridge W/m2
06:29 38.1 °F 29.5 °F 30.17 in Calm     71% 0 in meteobridge W/m2
06:34 37.9 °F 29.3 °F 30.17 in Calm   1 mph 71% 0 in meteobridge W/m2
06:39 37.8 °F 28.9 °F 30.17 in Calm     70% 0 in meteobridge W/m2
06:44 37.4 °F 28.2 °F 30.18 in West 0.9 mph 1 mph 69% 0 in meteobridge W/m2
06:49 37 °F 27.1 °F 30.17 in Calm     67% 0 in meteobridge W/m2
06:54 36.7 °F 27.1 °F 30.18 in Calm     68% 0 in meteobridge W/m2
06:59 36.1 °F 26.6 °F 30.18 in Calm     68% 0 in meteobridge W/m2
07:04 35.6 °F 26.1 °F 30.18 in Calm     68% 0 in meteobridge W/m2
07:09 35.2 °F 25 °F 30.18 in Calm   1 mph 66% 0 in meteobridge W/m2
07:14 35.2 °F 23.5 °F 30.18 in Calm     62% 0 in meteobridge W/m2
07:19 35.4 °F 23 °F 30.18 in Calm     60% 0 in meteobridge W/m2
07:24 35.6 °F 23 °F 30.18 in Calm   1 mph 60% 0 in meteobridge W/m2
07:29 36 °F 23.4 °F 30.17 in Calm   3 mph 60% 0 in meteobridge W/m2
07:34 36.3 °F 24.6 °F 30.18 in Calm   4 mph 62% 0 in meteobridge W/m2
07:39 36.7 °F 26.1 °F 30.18 in Calm   2 mph 65% 0 in meteobridge W/m2
07:44 36.9 °F 27 °F 30.18 in Calm   3 mph 67% 0 in meteobridge W/m2
07:49 36.7 °F 26.8 °F 30.18 in Calm     67% 0 in meteobridge W/m2
07:54 36.3 °F 26.4 °F 30.19 in Calm     67% 0 in meteobridge W/m2
07:59 36.3 °F 26.1 °F 30.18 in Calm     66% 0 in meteobridge W/m2
08:04 36.7 °F 26.4 °F 30.18 in Calm     66% 0 in meteobridge W/m2
08:09 36.7 °F 26.8 °F 30.18 in WNW 0.9 mph 1 mph 67% 0 in meteobridge W/m2
08:14 36.9 °F 27 °F 30.19 in Calm     67% 0 in meteobridge W/m2
08:19 37 °F 27.1 °F 30.19 in Calm     67% 0 in meteobridge W/m2
08:24 37 °F 27.5 °F 30.19 in Calm     68% 0 in meteobridge W/m2
08:29 37 °F 27.1 °F 30.20 in Calm     67% 0 in meteobridge W/m2
08:34 37 °F 27.1 °F 30.20 in Calm   1 mph 67% 0 in meteobridge W/m2
08:39 37.6 °F 28 °F 30.20 in Calm     68% 0 in meteobridge W/m2
08:44 37.9 °F 28.4 °F 30.20 in Calm     68% 0 in meteobridge W/m2
08:49 38.3 °F 28.9 °F 30.20 in Calm     69% 0 in meteobridge W/m2
08:54 38.8 °F 29.8 °F 30.21 in Calm     70% 0 in meteobridge W/m2
08:59 39.2 °F 30.9 °F 30.21 in Calm     72% 0 in meteobridge W/m2
09:04 39.6 °F 30.6 °F 30.22 in Calm     70% 0 in meteobridge W/m2
09:09 39.6 °F 30.2 °F 30.22 in Calm     69% 0 in meteobridge W/m2
09:14 39.9 °F 30.6 °F 30.22 in Calm     69% 0 in meteobridge W/m2
09:19 40.5 °F 31.8 °F 30.22 in Calm     71% 0 in meteobridge W/m2
09:24 41 °F 33.1 °F 30.22 in Calm     73% 0 in meteobridge W/m2
09:29 41.9 °F 33.3 °F 30.22 in Calm     71% 0 in meteobridge W/m2
09:34 43 °F 33.4 °F 30.23 in Calm     69% 0 in meteobridge W/m2
09:39 43.3 °F 35.6 °F 30.22 in Calm     74% 0 in meteobridge W/m2
09:44 44.1 °F 36 °F 30.22 in Calm     73% 0 in meteobridge W/m2
09:49 44.8 °F 36 °F 30.22 in Calm   1 mph 71% 0 in meteobridge W/m2
09:54 45.5 °F 36.7 °F 30.22 in Calm   1 mph 71% 0 in meteobridge W/m2
09:59 45.9 °F 37 °F 30.22 in Calm   1 mph 71% 0 in meteobridge W/m2
10:04 46.2 °F 36.7 °F 30.22 in Calm   2 mph 69% 0 in meteobridge W/m2
10:09 46.8 °F 36.7 °F 30.23 in Calm   1 mph 68% 0 in meteobridge W/m2
10:14 47.5 °F 34.7 °F 30.23 in Calm   6 mph 61% 0 in meteobridge W/m2
10:19 48 °F 36 °F 30.23 in Calm     63% 0 in meteobridge W/m2
10:24 48.4 °F 34.3 °F 30.23 in Calm   3 mph 58% 0 in meteobridge W/m2
10:29 48.9 °F 34 °F 30.23 in WSW 0.9 mph 4 mph 56% 0 in meteobridge W/m2
10:34 49.5 °F 32.5 °F 30.22 in Calm   2 mph 52% 0 in meteobridge W/m2
10:39 49.8 °F 31.5 °F 30.22 in WNW 2 mph 3 mph 49% 0 in meteobridge W/m2
10:44 50.2 °F 32.7 °F 30.22 in West 2.9 mph 4 mph 51% 0 in meteobridge W/m2
10:49 50.4 °F 29.8 °F 30.22 in Calm   4 mph 45% 0 in meteobridge W/m2
10:54 51.1 °F 28.2 °F 30.21 in Calm   4 mph 41% 0 in meteobridge W/m2
10:59 51.4 °F 26.6 °F 30.21 in NW 0.9 mph 6 mph 38% 0 in meteobridge W/m2
11:04 52 °F 22.3 °F 30.21 in Calm   4 mph 31% 0 in meteobridge W/m2
11:09 52.2 °F 20.8 °F 30.20 in Calm   7 mph 29% 0 in meteobridge W/m2
11:14 52.3 °F 21 °F 30.20 in Calm   6 mph 29% 0 in meteobridge W/m2
11:19 52.7 °F 22.1 °F 30.19 in WNW 2.9 mph 4 mph 30% 0 in meteobridge W/m2
11:24 52.9 °F 24.6 °F 30.19 in Calm   2 mph 33% 0 in meteobridge W/m2
11:29 53.1 °F 25.3 °F 30.19 in NW 0.9 mph 5 mph 34% 0 in meteobridge W/m2
11:34 53.2 °F 27 °F 30.19 in SW 2.9 mph 3 mph 36% 0 in meteobridge W/m2
11:39 53.6 °F 29.3 °F 30.19 in Calm     39% 0 in meteobridge W/m2
11:44 54 °F 30.2 °F 30.18 in Calm   1 mph 40% 0 in meteobridge W/m2
11:49 54.7 °F 31.5 °F 30.18 in Calm   1 mph 41% 0 in meteobridge W/m2
11:54 54.9 °F 29.1 °F 30.17 in Calm   3 mph 37% 0 in meteobridge W/m2
11:59 55 °F 30.6 °F 30.17 in Calm   1 mph 39% 0 in meteobridge W/m2
12:04 55 °F 30.6 °F 30.17 in Calm   1 mph 39% 0 in meteobridge W/m2
12:09 55.4 °F 30.2 °F 30.16 in Calm     38% 0 in meteobridge W/m2
12:14 55.6 °F 31.6 °F 30.16 in Calm     40% 0 in meteobridge W/m2
12:19 55.8 °F 30.6 °F 30.16 in Calm   1 mph 38% 0 in meteobridge W/m2
12:24 55.8 °F 29.1 °F 30.16 in WNW 2 mph 3 mph 36% 0 in meteobridge W/m2
12:29 55.8 °F 29.8 °F 30.15 in Calm   2 mph 37% 0 in meteobridge W/m2
12:34 55.8 °F 30.6 °F 30.15 in Calm   3 mph 38% 0 in meteobridge W/m2
12:39 56.1 °F 32.7 °F 30.14 in Calm   1 mph 41% 0 in meteobridge W/m2
12:44 56.5 °F 31.1 °F 30.13 in Calm     38% 0 in meteobridge W/m2
12:49 56.8 °F 31.5 °F 30.13 in SE 2 mph 4 mph 38% 0 in meteobridge W/m2
12:54 57.4 °F 32 °F 30.13 in Calm     38% 0 in meteobridge W/m2
12:59 57.6 °F 34 °F 30.12 in Calm     41% 0 in meteobridge W/m2
13:04 57.7 °F 32.9 °F 30.12 in Calm   2 mph 39% 0 in meteobridge W/m2
13:09 57.9 °F 32.5 °F 30.13 in WNW 0.9 mph 1 mph 38% 0 in meteobridge W/m2
13:14 58.3 °F 32.7 °F 30.12 in North 0.9 mph 3 mph 38% 0 in meteobridge W/m2
13:19 58.6 °F 31.8 °F 30.11 in Calm   6 mph 36% 0 in meteobridge W/m2
13:24 59 °F 34.2 °F 30.11 in Calm   2 mph 39% 0 in meteobridge W/m2
13:29 59 °F 32.7 °F 30.11 in Calm   2 mph 37% 0 in meteobridge W/m2
13:34 59 °F 34.7 °F 30.11 in Calm     40% 0 in meteobridge W/m2
13:39 59 °F 32.7 °F 30.10 in Calm   2 mph 37% 0 in meteobridge W/m2
13:44 59 °F 32.7 °F 30.10 in Calm     37% 0 in meteobridge W/m2
13:49 59.2 °F 32.9 °F 30.10 in Calm   1 mph 37% 0 in meteobridge W/m2
13:54 59.4 °F 33.8 °F 30.10 in Calm   3 mph 38% 0 in meteobridge W/m2
13:59 59.4 °F 32.4 °F 30.09 in Calm   2 mph 36% 0 in meteobridge W/m2
14:04 59.5 °F 32.5 °F 30.10 in Calm   3 mph 36% 0 in meteobridge W/m2
14:09 59.7 °F 34 °F 30.09 in WNW 2 mph 3 mph 38% 0 in meteobridge W/m2
14:14 59.7 °F 32.7 °F 30.09 in Calm   1 mph 36% 0 in meteobridge W/m2
14:19 59.9 °F 34.9 °F 30.09 in Calm   1 mph 39% 0 in meteobridge W/m2
14:24 60.1 °F 33.8 °F 30.09 in Calm   1 mph 37% 0 in meteobridge W/m2
14:29 60.1 °F 35.1 °F 30.09 in Calm   1 mph 39% 0 in meteobridge W/m2
14:34 60.1 °F 36.3 °F 30.10 in SW 0.9 mph 2 mph 41% 0 in meteobridge W/m2
14:39 60.1 °F 35.6 °F 30.10 in NW 0.9 mph 2 mph 40% 0 in meteobridge W/m2
14:44 59.7 °F 34 °F 30.10 in NNW 4 mph 4 mph 38% 0 in meteobridge W/m2
14:49 59.5 °F 35.2 °F 30.10 in Calm     40% 0 in meteobridge W/m2
14:54 59.5 °F 35.2 °F 30.10 in Calm   4 mph 40% 0 in meteobridge W/m2
14:59 59.5 °F 35.2 °F 30.10 in Calm   1 mph 40% 0 in meteobridge W/m2
15:04 59.5 °F 35.8 °F 30.10 in Calm     41% 0 in meteobridge W/m2
15:09 59.5 °F 36.5 °F 30.10 in Calm   1 mph 42% 0 in meteobridge W/m2
15:14 59.4 °F 36.3 °F 30.10 in Calm     42% 0 in meteobridge W/m2
15:19 59.4 °F 35.1 °F 30.10 in Calm   1 mph 40% 0 in meteobridge W/m2
15:24 59.2 °F 36.1 °F 30.10 in Calm     42% 0 in meteobridge W/m2
15:29 59 °F 37 °F 30.10 in Calm   1 mph 44% 0 in meteobridge W/m2
15:34 58.5 °F 39.9 °F 30.10 in Calm   1 mph 50% 0 in meteobridge W/m2
15:39 57.9 °F 39.4 °F 30.11 in Calm     50% 0 in meteobridge W/m2
15:44 57.2 °F 39.7 °F 30.11 in Calm   2 mph 52% 0 in meteobridge W/m2
15:49 56.7 °F 40.3 °F 30.11 in Calm     54% 0 in meteobridge W/m2
15:54 55.9 °F 39.6 °F 30.11 in Calm   4 mph 54% 0 in meteobridge W/m2
15:59 55.6 °F 40.1 °F 30.12 in Calm     56% 0 in meteobridge W/m2
16:04 55 °F 39.6 °F 30.12 in Calm   4 mph 56% 0 in meteobridge W/m2
16:09 54.9 °F 39 °F 30.13 in Calm   1 mph 55% 0 in meteobridge W/m2
16:14 54.7 °F 40.3 °F 30.13 in Calm     58% 0 in meteobridge W/m2
16:19 54.3 °F 39 °F 30.13 in Calm   2 mph 56% 0 in meteobridge W/m2
16:24 54 °F 39 °F 30.13 in Calm     57% 0 in meteobridge W/m2
16:29 53.8 °F 39.4 °F 30.14 in Calm     58% 0 in meteobridge W/m2
16:34 53.4 °F 39 °F 30.14 in Calm     58% 0 in meteobridge W/m2
16:39 53.2 °F 39.7 °F 30.14 in Calm     60% 0 in meteobridge W/m2
16:44 53.1 °F 39.6 °F 30.14 in Calm     60% 0 in meteobridge W/m2
16:49 52.7 °F 39.2 °F 30.14 in Calm   1 mph 60% 0 in meteobridge W/m2
16:54 52.3 °F 38.8 °F 30.14 in Calm     60% 0 in meteobridge W/m2
16:59 52.2 °F 38.7 °F 30.14 in Calm     60% 0 in meteobridge W/m2
17:04 52 °F 39 °F 30.14 in Calm     61% 0 in meteobridge W/m2
17:09 51.6 °F 38.7 °F 30.14 in Calm     61% 0 in meteobridge W/m2
17:14 51.3 °F 39 °F 30.14 in Calm     63% 0 in meteobridge W/m2
17:19 51.1 °F 38.5 °F 30.14 in Calm     62% 0 in meteobridge W/m2
17:24 50.5 °F 38.8 °F 30.13 in Calm     64% 0 in meteobridge W/m2
17:29 50.2 °F 38.8 °F 30.14 in Calm     65% 0 in meteobridge W/m2
17:34 49.6 °F 38.7 °F 30.14 in Calm     66% 0 in meteobridge W/m2
17:39 49.3 °F 38.8 °F 30.14 in Calm     67% 0 in meteobridge W/m2
17:44 48.7 °F 38.3 °F 30.14 in Calm     67% 0 in meteobridge W/m2
17:49 48.6 °F 38.5 °F 30.14 in Calm     68% 0 in meteobridge W/m2
17:54 48 °F 38.3 °F 30.14 in Calm     69% 0 in meteobridge W/m2
17:59 47.5 °F 38.1 °F 30.14 in Calm     70% 0 in meteobridge W/m2
18:04 46.9 °F 38.1 °F 30.14 in Calm     71% 0 in meteobridge W/m2
18:09 46.4 °F 37.6 °F 30.14 in Calm     71% 0 in meteobridge W/m2
18:14 46 °F 37.6 °F 30.14 in Calm     72% 0 in meteobridge W/m2
18:19 45.7 °F 37.2 °F 30.14 in Calm     72% 0 in meteobridge W/m2
18:24 45.1 °F 36.7 °F 30.14 in Calm     72% 0 in meteobridge W/m2
18:29 45 °F 36.9 °F 30.15 in Calm     73% 0 in meteobridge W/m2
18:34 44.6 °F 36.5 °F 30.15 in Calm     73% 0 in meteobridge W/m2
18:39 44.1 °F 36 °F 30.15 in Calm     73% 0 in meteobridge W/m2
18:44 43.5 °F 35.4 °F 30.16 in Calm     73% 0 in meteobridge W/m2
18:49 43.3 °F 35.2 °F 30.16 in Calm     73% 0 in meteobridge W/m2
18:54 43 °F 34.9 °F 30.16 in Calm     73% 0 in meteobridge W/m2
18:59 42.8 °F 34.3 °F 30.16 in Calm     72% 0 in meteobridge W/m2
19:04 42.4 °F 34 °F 30.16 in Calm     72% 0 in meteobridge W/m2
19:09 42.3 °F 33.8 °F 30.16 in Calm     72% 0 in meteobridge W/m2
19:14 41.7 °F 33.4 °F 30.16 in Calm     72% 0 in meteobridge W/m2
19:19 41.5 °F 32.9 °F 30.16 in Calm     71% 0 in meteobridge W/m2
19:24 41.4 °F 32.7 °F 30.16 in Calm     71% 0 in meteobridge W/m2
19:29 41.2 °F 32.5 °F 30.16 in Calm     71% 0 in meteobridge W/m2
19:34 40.8 °F 31.8 °F 30.16 in Calm     70% 0 in meteobridge W/m2
19:39 40.6 °F 31.6 °F 30.16 in Calm     70% 0 in meteobridge W/m2
19:44 40.5 °F 31.1 °F 30.16 in Calm     69% 0 in meteobridge W/m2
19:49 40.3 °F 30.9 °F 30.16 in Calm     69% 0 in meteobridge W/m2
19:54 40.1 °F 30.4 °F 30.16 in Calm     68% 0 in meteobridge W/m2
19:59 39.9 °F 30.2 °F 30.16 in Calm     68% 0 in meteobridge W/m2
20:04 39.7 °F 30 °F 30.17 in Calm     68% 0 in meteobridge W/m2
20:09 39.6 °F 29.5 °F 30.16 in Calm     67% 0 in meteobridge W/m2
20:14 39.4 °F 29.3 °F 30.17 in Calm     67% 0 in meteobridge W/m2
20:19 39.2 °F 28.8 °F 30.17 in Calm     66% 0 in meteobridge W/m2
20:24 38.8 °F 28.4 °F 30.18 in Calm     66% 0 in meteobridge W/m2
20:29 38.8 °F 28 °F 30.18 in Calm     65% 0 in meteobridge W/m2
20:34 38.7 °F 27.5 °F 30.18 in Calm     64% 0 in meteobridge W/m2
20:39 38.5 °F 27 °F 30.18 in Calm     63% 0 in meteobridge W/m2
20:44 38.5 °F 27 °F 30.18 in Calm     63% 0 in meteobridge W/m2
20:49 38.1 °F 26.2 °F 30.18 in Calm     62% 0 in meteobridge W/m2
20:54 37.9 °F 25.7 °F 30.18 in Calm     61% 0 in meteobridge W/m2
20:59 37.9 °F 25.7 °F 30.18 in Calm     61% 0 in meteobridge W/m2
21:04 37.9 °F 25.7 °F 30.18 in Calm     61% 0 in meteobridge W/m2
21:09 37.8 °F 25.2 °F 30.18 in Calm     60% 0 in meteobridge W/m2
21:14 37.8 °F 24.8 °F 30.18 in Calm     59% 0 in meteobridge W/m2
21:19 37.8 °F 24.8 °F 30.19 in Calm     59% 0 in meteobridge W/m2
21:24 37.8 °F 24.8 °F 30.19 in Calm     59% 0 in meteobridge W/m2
21:29 37.8 °F 24.3 °F 30.19 in Calm     58% 0 in meteobridge W/m2
21:34 37.6 °F 24.1 °F 30.19 in Calm     58% 0 in meteobridge W/m2
21:39 37.6 °F 24.1 °F 30.19 in Calm     58% 0 in meteobridge W/m2
21:44 37.6 °F 24.1 °F 30.18 in Calm     58% 0 in meteobridge W/m2
21:49 37.2 °F 23.7 °F 30.18 in Calm     58% 0 in meteobridge W/m2
21:54 37.2 °F 23.7 °F 30.18 in Calm     58% 0 in meteobridge W/m2
21:59 37 °F 23.2 °F 30.18 in Calm     57% 0 in meteobridge W/m2
22:04 37 °F 22.8 °F 30.18 in Calm     56% 0 in meteobridge W/m2
22:09 37 °F 22.8 °F 30.18 in Calm     56% 0 in meteobridge W/m2
22:14 36.9 °F 22.6 °F 30.18 in Calm     56% 0 in meteobridge W/m2
22:19 36.9 °F 22.3 °F 30.18 in Calm     55% 0 in meteobridge W/m2
22:24 36.9 °F 22.3 °F 30.18 in Calm     55% 0 in meteobridge W/m2
22:29 36.7 °F 21.6 °F 30.18 in Calm     54% 0 in meteobridge W/m2
22:34 36.7 °F 21.6 °F 30.18 in Calm     54% 0 in meteobridge W/m2
22:39 36.7 °F 21.6 °F 30.18 in Calm     54% 0 in meteobridge W/m2
22:44 36.5 °F 21.4 °F 30.18 in Calm     54% 0 in meteobridge W/m2
22:49 36.3 °F 21.2 °F 30.18 in Calm     54% 0 in meteobridge W/m2
22:54 36.3 °F 21.2 °F 30.18 in Calm     54% 0 in meteobridge W/m2
22:59 36.3 °F 21.2 °F 30.18 in Calm     54% 0 in meteobridge W/m2
23:04 36.1 °F 21 °F 30.18 in Calm     54% 0 in meteobridge W/m2
23:09 36.1 °F 20.7 °F 30.18 in Calm     53% 0 in meteobridge W/m2
23:14 36.1 °F 20.7 °F 30.18 in Calm     53% 0 in meteobridge W/m2
23:19 36 °F 20.5 °F 30.18 in Calm     53% 0 in meteobridge W/m2
23:24 36 °F 20.5 °F 30.18 in Calm     53% 0 in meteobridge W/m2
23:29 36 °F 20.1 °F 30.18 in Calm     52% 0 in meteobridge W/m2
23:34 35.8 °F 19.9 °F 30.18 in Calm     52% 0 in meteobridge W/m2
23:39 35.8 °F 19.9 °F 30.17 in Calm     52% 0 in meteobridge W/m2
23:44 35.8 °F 19.4 °F 30.17 in Calm     51% 0 in meteobridge W/m2
23:49 35.8 °F 19.4 °F 30.17 in Calm     51% 0 in meteobridge W/m2
23:54 35.6 °F 19.2 °F 30.18 in Calm     51% 0 in meteobridge W/m2
23:59 35.6 °F 19.2 °F 30.17 in Calm     51% 0 in meteobridge W/m2
EllijayWeather
Compliments of Weather Underground - 2.5 mb